Time;durP1;ratioP1;P1;durP2;ratioP2;P2;SDS_P1;SDS_P2;PMS_P1;PMS_P2;Temp;Humidity;BMP_temperature;BMP_pressure;BME280_temperature;BME280_humidity;BME280_pressure;Samples;Min_cycle;Max_cycle;Signal;HPM_P1;HPM_P2
2021/11/23 00:00:00;;;;;;;3.90;3.38;;;7.30;67.60;;;;;;4993161;28;20035;-54
2021/11/23 00:02:26;;;;;;;4.40;3.28;;;7.20;67.60;;;;;;4993448;28;20026;-59
2021/11/23 00:04:52;;;;;;;5.00;3.72;;;7.20;67.80;;;;;;4993185;28;20374;-59
2021/11/23 00:07:18;;;;;;;4.35;3.58;;;7.20;67.80;;;;;;4976492;28;20102;-59
2021/11/23 00:09:44;;;;;;;3.50;3.20;;;7.20;68.00;;;;;;4975003;28;20122;-59
2021/11/23 00:12:10;;;;;;;3.83;3.13;;;7.20;68.00;;;;;;4988140;28;20441;-58
2021/11/23 00:14:35;;;;;;;5.03;3.30;;;7.20;68.00;;;;;;4984638;28;20057;-56
2021/11/23 00:17:01;;;;;;;4.18;3.25;;;7.20;68.00;;;;;;4992711;28;20062;-59
2021/11/23 00:19:27;;;;;;;3.70;3.28;;;7.20;67.90;;;;;;4992908;28;20102;-58
2021/11/23 00:21:53;;;;;;;3.33;3.03;;;7.20;67.80;;;;;;4989066;28;20027;-57
2021/11/23 00:24:18;;;;;;;4.00;3.58;;;7.30;67.80;;;;;;4981876;28;20035;-57
2021/11/23 00:26:44;;;;;;;3.58;3.20;;;7.30;67.90;;;;;;4983368;28;20018;-59
2021/11/23 00:29:10;;;;;;;4.00;3.45;;;7.20;67.80;;;;;;4996190;28;20022;-56
2021/11/23 00:31:35;;;;;;;3.83;3.15;;;7.30;67.90;;;;;;4996050;28;20041;-57
2021/11/23 00:34:01;;;;;;;4.25;3.08;;;7.30;67.70;;;;;;4996085;28;20101;-58
2021/11/23 00:36:28;;;;;;;4.78;3.55;;;7.30;67.60;;;;;;4995922;28;20096;-58
2021/11/23 00:38:54;;;;;;;4.25;3.28;;;7.40;67.50;;;;;;4996499;28;20540;-57
2021/11/23 00:41:19;;;;;;;4.82;3.60;;;7.40;67.30;;;;;;4991018;28;20038;-58
2021/11/23 00:43:46;;;;;;;5.40;3.50;;;7.40;67.30;;;;;;4977296;28;20027;-57
2021/11/23 00:46:13;;;;;;;3.50;3.20;;;7.40;67.20;;;;;;4995512;28;20465;-57
2021/11/23 00:48:38;;;;;;;4.20;3.47;;;7.30;67.10;;;;;;4996245;28;20473;-58
2021/11/23 00:51:05;;;;;;;4.88;3.65;;;7.30;67.20;;;;;;4996719;28;20026;-57
2021/11/23 00:53:35;;;;;;;5.53;4.03;;;7.30;67.20;;;;;;4996666;28;20375;-59
2021/11/23 00:56:04;;;;;;;4.63;3.58;;;7.30;67.40;;;;;;4996143;28;20026;-59
2021/11/23 00:58:30;;;;;;;5.13;3.25;;;7.20;67.20;;;;;;4991356;28;20042;-58
2021/11/23 01:00:56;;;;;;;3.70;3.30;;;7.10;67.50;;;;;;4995352;28;20022;-57
2021/11/23 01:03:22;;;;;;;4.10;3.17;;;7.10;67.60;;;;;;4996456;28;20450;-58
2021/11/23 01:05:49;;;;;;;4.30;3.60;;;7.10;67.60;;;;;;4995102;28;20393;-57
2021/11/23 01:08:17;;;;;;;4.70;4.28;;;7.00;67.50;;;;;;4978187;28;20069;-59
2021/11/23 01:10:43;;;;;;;4.70;3.17;;;7.00;67.40;;;;;;4986114;28;20418;-54
2021/11/23 01:13:09;;;;;;;3.53;2.90;;;6.90;67.40;;;;;;4996448;28;20026;-59
2021/11/23 01:15:34;;;;;;;7.03;3.50;;;6.90;67.30;;;;;;4990369;28;20035;-58
2021/11/23 01:18:00;;;;;;;3.67;3.20;;;6.90;67.30;;;;;;4995830;28;20038;-59
2021/11/23 01:20:26;;;;;;;3.70;3.28;;;6.80;67.10;;;;;;4989882;28;20101;-57
2021/11/23 01:22:53;;;;;;;3.83;3.22;;;6.80;67.10;;;;;;4995762;28;20581;-59
2021/11/23 01:25:19;;;;;;;3.85;3.05;;;6.80;67.10;;;;;;4995887;28;20022;-59
2021/11/23 01:27:45;;;;;;;3.72;2.85;;;6.80;67.10;;;;;;4995722;28;20054;-56
2021/11/23 01:30:12;;;;;;;4.00;3.40;;;6.70;66.90;;;;;;4994369;28;20490;-57
2021/11/23 01:32:39;;;;;;;3.65;3.30;;;6.70;66.90;;;;;;4984914;28;20366;-58
2021/11/23 01:35:06;;;;;;;3.80;3.25;;;6.70;66.90;;;;;;4994897;28;20033;-57
2021/11/23 01:37:32;;;;;;;3.25;2.95;;;6.70;67.70;;;;;;4994422;28;20110;-58
2021/11/23 01:39:58;;;;;;;3.50;3.20;;;6.60;67.10;;;;;;4995877;28;20057;-59
2021/11/23 01:42:24;;;;;;;4.00;3.20;;;6.60;66.80;;;;;;4995817;28;20033;-58
2021/11/23 01:44:50;;;;;;;4.03;3.20;;;6.60;66.80;;;;;;4995612;28;20026;-58
2021/11/23 01:47:16;;;;;;;4.05;3.20;;;6.50;66.90;;;;;;4991870;28;20031;-58
2021/11/23 01:49:41;;;;;;;3.90;3.38;;;6.50;66.90;;;;;;4995250;28;20026;-58
2021/11/23 01:52:07;;;;;;;5.03;3.40;;;6.50;66.90;;;;;;4995296;28;20026;-58
2021/11/23 01:54:34;;;;;;;3.60;3.00;;;6.50;67.00;;;;;;4988408;28;20475;-58
2021/11/23 01:57:00;;;;;;;3.50;3.03;;;6.50;67.20;;;;;;4985459;28;20030;-59
2021/11/23 01:59:26;;;;;;;5.07;3.38;;;6.40;67.20;;;;;;4995133;28;20615;-58
2021/11/23 02:01:52;;;;;;;3.85;3.33;;;6.40;67.30;;;;;;4994894;28;20114;-59
2021/11/23 02:04:18;;;;;;;3.72;3.30;;;6.40;67.50;;;;;;4985964;28;20115;-59
2021/11/23 02:06:44;;;;;;;4.30;3.45;;;6.40;67.50;;;;;;4994494;28;20033;-58
2021/11/23 02:09:10;;;;;;;4.15;3.22;;;6.40;67.60;;;;;;4994482;28;20026;-58
2021/11/23 02:11:36;;;;;;;3.67;3.35;;;6.40;67.60;;;;;;4994860;28;20030;-59
2021/11/23 02:14:03;;;;;;;4.78;3.42;;;6.30;67.60;;;;;;4995292;28;20473;-56
2021/11/23 02:16:32;;;;;;;4.05;3.30;;;6.30;67.70;;;;;;4994845;28;20060;-57
2021/11/23 02:18:58;;;;;;;3.33;3.03;;;6.30;67.70;;;;;;4994203;28;20061;-57
2021/11/23 02:21:24;;;;;;;8.23;3.25;;;6.20;67.90;;;;;;4983764;28;20097;-58
2021/11/23 02:23:50;;;;;;;3.78;3.38;;;6.20;67.80;;;;;;4983900;28;20417;-57
2021/11/23 02:26:16;;;;;;;3.55;3.25;;;6.20;67.90;;;;;;4993673;28;20031;-59
2021/11/23 02:28:42;;;;;;;4.05;3.20;;;6.20;68.00;;;;;;4995134;28;20354;-57
2021/11/23 02:31:09;;;;;;;3.42;3.10;;;6.20;67.80;;;;;;4994805;28;20101;-59
2021/11/23 02:33:35;;;;;;;4.00;3.25;;;6.20;68.00;;;;;;4994098;28;20450;-59
2021/11/23 02:36:04;;;;;;;3.67;3.22;;;6.20;67.70;;;;;;4994629;28;20039;-59
2021/11/23 02:38:31;;;;;;;4.35;3.45;;;6.20;67.80;;;;;;4975363;28;20035;-58
2021/11/23 02:40:57;;;;;;;4.45;3.40;;;6.10;67.70;;;;;;4989323;28;20072;-59
2021/11/23 02:43:23;;;;;;;3.78;2.95;;;6.10;67.60;;;;;;4994237;28;20030;-54
2021/11/23 02:45:50;;;;;;;3.35;3.05;;;6.10;67.60;;;;;;4994357;28;20037;-58
2021/11/23 02:48:16;;;;;;;3.80;3.38;;;6.10;67.70;;;;;;4994049;28;20336;-59
2021/11/23 02:50:48;;;;;;;3.78;3.20;;;6.10;67.70;;;;;;4992505;28;20105;-55
2021/11/23 02:53:15;;;;;;;4.63;3.20;;;6.10;67.60;;;;;;4985954;28;20518;-56
2021/11/23 02:55:41;;;;;;;4.32;3.65;;;6.10;67.60;;;;;;4992933;28;20081;-56
2021/11/23 02:58:07;;;;;;;4.88;3.35;;;6.10;67.60;;;;;;4993720;28;20027;-58
2021/11/23 03:00:34;;;;;;;3.22;2.92;;;6.10;67.60;;;;;;4994202;28;20022;-57
2021/11/23 03:03:00;;;;;;;3.67;3.13;;;6.10;67.60;;;;;;4994420;28;20120;-57
2021/11/23 03:05:27;;;;;;;4.07;3.30;;;6.10;67.60;;;;;;4994536;28;20065;-54
2021/11/23 03:07:54;;;;;;;3.42;3.13;;;6.10;67.60;;;;;;4993713;28;20069;-58
2021/11/23 03:10:22;;;;;;;4.18;3.50;;;6.10;67.70;;;;;;4990506;28;20040;-58
2021/11/23 03:12:50;;;;;;;4.13;3.20;;;6.10;67.70;;;;;;4994156;28;20026;-58
2021/11/23 03:15:17;;;;;;;4.00;3.28;;;6.10;67.70;;;;;;4993823;28;20176;-58
2021/11/23 03:17:43;;;;;;;3.70;3.30;;;6.10;67.50;;;;;;4993924;28;20022;-59
2021/11/23 03:20:11;;;;;;;3.83;3.33;;;6.10;67.50;;;;;;4990615;28;20026;-57
2021/11/23 03:22:37;;;;;;;3.53;3.20;;;6.10;67.50;;;;;;4994034;28;20198;-59
2021/11/23 03:25:04;;;;;;;4.90;3.72;;;6.10;67.40;;;;;;4983225;28;20511;-57
2021/11/23 03:27:30;;;;;;;3.95;3.45;;;6.10;67.50;;;;;;4990697;28;20030;-59
2021/11/23 03:29:56;;;;;;;3.90;3.50;;;6.10;67.70;;;;;;4993585;28;20027;-59
2021/11/23 03:32:22;;;;;;;3.78;3.40;;;6.00;67.70;;;;;;4993412;28;20406;-59
2021/11/23 03:34:50;;;;;;;5.05;3.67;;;6.00;67.70;;;;;;4993993;28;20356;-55
2021/11/23 03:37:20;;;;;;;4.18;3.60;;;6.00;67.70;;;;;;4993962;28;20038;-57
2021/11/23 03:39:48;;;;;;;4.50;3.78;;;5.90;67.60;;;;;;4992985;28;20070;-57
2021/11/23 03:42:15;;;;;;;4.40;3.70;;;5.90;67.80;;;;;;4993120;28;20096;-58
2021/11/23 03:44:40;;;;;;;4.70;3.80;;;5.80;67.80;;;;;;4994231;28;20057;-56
2021/11/23 03:47:07;;;;;;;4.47;3.30;;;5.80;67.80;;;;;;4993609;28;20061;-57
2021/11/23 03:49:34;;;;;;;4.30;3.90;;;5.80;67.90;;;;;;4993588;28;20027;-58
2021/11/23 03:52:01;;;;;;;3.85;3.30;;;5.80;68.10;;;;;;4993905;28;20022;-59
2021/11/23 03:54:27;;;;;;;5.05;3.80;;;5.80;68.30;;;;;;4994025;28;20487;-59
2021/11/23 03:56:53;;;;;;;5.30;3.88;;;5.80;68.30;;;;;;4990163;28;20469;-57
2021/11/23 03:59:19;;;;;;;4.53;3.50;;;5.80;68.30;;;;;;4995594;28;20030;-59
2021/11/23 04:01:45;;;;;;;8.30;3.60;;;5.70;68.20;;;;;;4997298;28;20022;-59
2021/11/23 04:04:11;;;;;;;4.75;3.67;;;5.70;68.20;;;;;;4997013;28;20034;-58
2021/11/23 04:06:37;;;;;;;4.28;3.70;;;5.70;68.20;;;;;;4997164;28;20463;-59
2021/11/23 04:09:03;;;;;;;4.10;3.25;;;5.70;68.30;;;;;;4997366;28;20482;-57
2021/11/23 04:11:29;;;;;;;4.18;3.50;;;5.70;68.30;;;;;;4997447;28;20027;-58
2021/11/23 04:13:55;;;;;;;4.20;3.78;;;5.70;68.20;;;;;;4992567;28;20522;-59
2021/11/23 04:16:21;;;;;;;4.40;4.00;;;5.60;68.20;;;;;;4995957;28;20034;-58
2021/11/23 04:18:47;;;;;;;4.20;3.63;;;5.60;68.40;;;;;;4996686;28;20034;-57
2021/11/23 04:21:13;;;;;;;4.88;4.30;;;5.60;68.20;;;;;;4997277;28;20106;-57
2021/11/23 04:23:39;;;;;;;5.35;4.20;;;5.60;68.20;;;;;;4996995;28;20122;-57
2021/11/23 04:26:05;;;;;;;4.70;4.20;;;5.60;68.30;;;;;;4993953;28;20094;-59
2021/11/23 04:28:30;;;;;;;5.30;4.10;;;5.60;68.10;;;;;;4995774;28;20485;-59
2021/11/23 04:30:56;;;;;;;4.60;4.07;;;5.60;68.00;;;;;;4996494;28;20034;-58
2021/11/23 04:33:22;;;;;;;5.10;3.90;;;5.50;68.00;;;;;;4986721;28;20030;-59
2021/11/23 04:35:48;;;;;;;4.05;3.35;;;5.50;68.10;;;;;;4996258;28;20058;-57
2021/11/23 04:38:14;;;;;;;5.20;3.83;;;5.50;68.00;;;;;;4996829;28;20037;-59
2021/11/23 04:40:40;;;;;;;4.20;3.55;;;5.50;67.90;;;;;;4992088;28;20449;-56
2021/11/23 04:43:06;;;;;;;4.22;3.60;;;5.50;67.80;;;;;;4996732;28;20022;-57
2021/11/23 04:45:35;;;;;;;4.50;4.10;;;5.50;67.80;;;;;;4996969;28;20485;-59
2021/11/23 04:48:01;;;;;;;4.18;3.78;;;5.50;67.80;;;;;;4994226;28;20022;-58
2021/11/23 04:50:27;;;;;;;5.65;4.05;;;5.50;67.80;;;;;;4996330;28;20180;-57
2021/11/23 04:52:53;;;;;;;4.30;3.65;;;5.50;67.80;;;;;;4995892;28;20068;-59
2021/11/23 04:55:19;;;;;;;4.70;3.90;;;5.50;68.00;;;;;;4996227;28;20042;-57
2021/11/23 04:57:45;;;;;;;4.10;3.67;;;5.50;67.70;;;;;;4996855;28;20030;-56
2021/11/23 05:00:15;;;;;;;4.07;3.47;;;5.50;67.80;;;;;;4995610;28;20084;-58
2021/11/23 05:02:41;;;;;;;3.78;3.38;;;5.50;67.50;;;;;;4995787;28;20026;-55
2021/11/23 05:05:09;;;;;;;3.90;3.40;;;5.50;67.40;;;;;;4995837;28;20098;-59
2021/11/23 05:07:35;;;;;;;3.67;3.35;;;5.50;67.40;;;;;;4995680;28;20026;-55
2021/11/23 05:10:00;;;;;;;4.65;3.58;;;5.50;67.40;;;;;;4995682;28;20023;-58
2021/11/23 05:12:26;;;;;;;3.67;3.20;;;5.50;67.40;;;;;;4996008;28;20069;-58
2021/11/23 05:14:52;;;;;;;3.78;3.40;;;5.50;67.00;;;;;;4996257;28;20034;-57
2021/11/23 05:17:18;;;;;;;3.40;3.05;;;5.50;66.70;;;;;;4995287;28;20374;-57
2021/11/23 05:19:44;;;;;;;3.25;2.95;;;5.50;66.60;;;;;;4993945;28;20430;-58
2021/11/23 05:22:10;;;;;;;3.15;2.90;;;5.50;66.40;;;;;;4991682;28;20040;-59
2021/11/23 05:24:36;;;;;;;2.95;2.70;;;5.50;66.40;;;;;;4990048;28;20039;-57
2021/11/23 05:27:03;;;;;;;3.15;2.67;;;5.50;66.30;;;;;;4993600;28;20031;-57
2021/11/23 05:29:29;;;;;;;3.30;3.00;;;5.50;66.10;;;;;;4994273;28;20402;-58
2021/11/23 05:31:55;;;;;;;3.47;2.85;;;5.40;66.20;;;;;;4993909;28;20034;-59
2021/11/23 05:34:21;;;;;;;3.20;2.90;;;5.40;65.90;;;;;;4994213;28;20045;-57
2021/11/23 05:36:47;;;;;;;2.85;2.65;;;5.40;66.30;;;;;;4994114;28;20026;-57
2021/11/23 05:39:14;;;;;;;3.08;2.78;;;5.40;65.90;;;;;;4995138;28;20042;-58
2021/11/23 05:41:40;;;;;;;4.07;3.38;;;5.40;65.70;;;;;;4990311;28;20035;-57
2021/11/23 05:44:06;;;;;;;3.40;2.90;;;5.40;66.00;;;;;;4993621;28;20041;-54
2021/11/23 05:46:33;;;;;;;3.28;2.97;;;5.40;66.20;;;;;;4995505;28;20029;-59
2021/11/23 05:48:59;;;;;;;3.28;2.97;;;5.40;66.40;;;;;;4995656;28;20033;-58
2021/11/23 05:51:25;;;;;;;3.20;2.90;;;5.40;66.10;;;;;;4995365;28;20105;-58
2021/11/23 05:53:51;;;;;;;3.70;3.15;;;5.40;66.20;;;;;;4994792;28;20072;-58
2021/11/23 05:56:17;;;;;;;4.53;3.42;;;5.40;66.30;;;;;;4993274;28;20106;-59
2021/11/23 05:58:43;;;;;;;4.70;3.22;;;5.40;66.10;;;;;;4995507;28;20022;-59
2021/11/23 06:01:09;;;;;;;4.00;2.92;;;5.40;66.10;;;;;;4994613;28;20031;-59
2021/11/23 06:03:35;;;;;;;3.70;3.20;;;5.40;66.10;;;;;;4994848;28;20026;-59
2021/11/23 06:06:01;;;;;;;3.33;2.70;;;5.30;66.10;;;;;;4994793;28;20034;-56
2021/11/23 06:08:27;;;;;;;3.03;2.83;;;5.30;66.10;;;;;;4995154;28;20094;-58
2021/11/23 06:10:53;;;;;;;2.55;2.35;;;5.30;66.00;;;;;;4985216;28;20821;-58
2021/11/23 06:13:18;;;;;;;2.58;2.38;;;5.30;66.00;;;;;;4986716;28;20035;-55
2021/11/23 06:15:46;;;;;;;2.95;2.67;;;5.30;66.00;;;;;;4989184;28;20034;-51
2021/11/23 06:18:15;;;;;;;3.30;2.72;;;5.30;65.90;;;;;;4989227;28;20031;-55
2021/11/23 06:20:46;;;;;;;2.95;2.60;;;5.30;65.80;;;;;;4987767;28;20027;-54
2021/11/23 06:23:14;;;;;;;3.05;2.70;;;5.30;65.60;;;;;;4991814;28;20097;-53
2021/11/23 06:25:45;;;;;;;2.83;2.63;;;5.20;65.70;;;;;;4993086;28;20084;-54
2021/11/23 06:28:13;;;;;;;3.35;2.90;;;5.20;65.80;;;;;;4988627;28;20133;-56
2021/11/23 06:30:39;;;;;;;3.63;3.33;;;5.10;65.90;;;;;;4987797;28;20045;-58
2021/11/23 06:33:05;;;;;;;2.75;2.55;;;5.10;65.90;;;;;;4983759;28;20536;-58
2021/11/23 06:35:31;;;;;;;3.13;2.90;;;5.00;65.80;;;;;;4991067;28;20113;-57
2021/11/23 06:37:57;;;;;;;2.90;2.60;;;5.00;65.90;;;;;;4985987;28;20030;-56
2021/11/23 06:40:23;;;;;;;2.95;2.45;;;5.00;65.70;;;;;;4987383;28;20046;-58
2021/11/23 06:42:49;;;;;;;3.40;2.83;;;5.00;65.90;;;;;;4989396;28;20492;-58
2021/11/23 06:45:14;;;;;;;3.17;2.90;;;5.00;65.70;;;;;;4981903;28;20084;-57
2021/11/23 06:47:41;;;;;;;3.10;2.75;;;5.00;65.70;;;;;;4977875;28;20423;-58
2021/11/23 06:50:08;;;;;;;2.55;2.35;;;5.10;65.80;;;;;;4974538;28;20023;-58
2021/11/23 06:52:35;;;;;;;3.70;2.67;;;5.10;65.80;;;;;;4975695;28;20031;-57
2021/11/23 06:55:00;;;;;;;2.90;2.70;;;5.10;65.60;;;;;;4978576;28;20073;-58
2021/11/23 06:57:26;;;;;;;2.75;2.45;;;5.10;65.30;;;;;;4974020;28;20120;-59
2021/11/23 06:59:52;;;;;;;2.83;2.60;;;5.20;65.00;;;;;;4980964;28;20030;-57
2021/11/23 07:02:18;;;;;;;2.95;2.65;;;5.20;64.80;;;;;;4982930;28;20039;-58
2021/11/23 07:04:43;;;;;;;2.90;2.70;;;5.20;64.60;;;;;;4981571;28;20061;-58
2021/11/23 07:07:09;;;;;;;2.63;2.40;;;5.20;64.70;;;;;;4976719;28;20034;-58
2021/11/23 07:09:36;;;;;;;2.70;2.50;;;5.20;64.90;;;;;;4977108;28;20027;-56
2021/11/23 07:12:03;;;;;;;3.00;2.70;;;5.20;64.60;;;;;;4984607;28;20041;-59
2021/11/23 07:14:29;;;;;;;2.60;2.40;;;5.30;64.90;;;;;;4975071;28;20829;-57
2021/11/23 07:16:55;;;;;;;4.95;3.75;;;5.20;65.00;;;;;;4980659;28;20498;-59
2021/11/23 07:19:21;;;;;;;2.80;2.60;;;5.30;64.90;;;;;;4974127;28;20050;-58
2021/11/23 07:21:47;;;;;;;3.05;2.60;;;5.30;64.70;;;;;;4981175;28;20117;-58
2021/11/23 07:24:12;;;;;;;2.65;2.45;;;5.30;64.60;;;;;;4976485;28;20043;-59
2021/11/23 07:26:39;;;;;;;2.78;2.58;;;5.40;64.40;;;;;;4977876;28;20035;-58
2021/11/23 07:29:06;;;;;;;3.00;2.70;;;5.30;64.10;;;;;;4978199;28;20064;-58
2021/11/23 07:31:32;;;;;;;2.72;2.40;;;5.30;64.10;;;;;;4974254;28;20057;-59
2021/11/23 07:33:58;;;;;;;3.20;2.50;;;5.30;63.90;;;;;;4984023;28;20053;-59
2021/11/23 07:36:25;;;;;;;3.55;2.55;;;5.40;63.80;;;;;;4980101;28;20037;-59
2021/11/23 07:38:53;;;;;;;3.17;2.47;;;5.30;63.70;;;;;;4981543;28;20042;-59
2021/11/23 07:41:20;;;;;;;2.58;2.38;;;5.40;63.60;;;;;;4977423;28;20050;-58
2021/11/23 07:43:45;;;;;;;3.05;2.75;;;5.40;63.50;;;;;;4977294;28;20039;-58
2021/11/23 07:46:11;;;;;;;2.63;2.42;;;5.40;63.30;;;;;;4978457;28;20037;-55
2021/11/23 07:48:38;;;;;;;2.65;2.45;;;5.40;63.10;;;;;;4975796;28;20085;-59
2021/11/23 07:51:04;;;;;;;2.90;2.60;;;5.40;63.10;;;;;;4978351;28;20038;-57
2021/11/23 07:53:30;;;;;;;3.03;2.70;;;5.40;63.40;;;;;;4982582;28;20058;-57
2021/11/23 07:55:56;;;;;;;2.60;2.50;;;5.40;63.30;;;;;;4978496;28;20117;-58
2021/11/23 07:58:22;;;;;;;2.53;2.33;;;5.40;63.30;;;;;;4978035;28;20851;-59
2021/11/23 08:00:48;;;;;;;2.50;2.30;;;5.40;63.20;;;;;;4978496;28;20035;-58
2021/11/23 08:03:13;;;;;;;2.65;2.45;;;5.40;62.90;;;;;;4972728;28;20494;-58
2021/11/23 08:05:40;;;;;;;2.50;2.40;;;5.40;62.80;;;;;;4977446;28;20398;-59
2021/11/23 08:08:08;;;;;;;2.60;2.40;;;5.40;62.20;;;;;;4973237;28;20061;-58
2021/11/23 08:10:35;;;;;;;3.08;2.17;;;5.40;61.90;;;;;;4972497;28;20050;-58
2021/11/23 08:13:01;;;;;;;2.92;2.40;;;5.40;61.50;;;;;;4967894;28;20727;-57
2021/11/23 08:15:27;;;;;;;2.55;2.25;;;5.40;61.20;;;;;;4968745;28;20037;-59
2021/11/23 08:17:53;;;;;;;2.75;2.53;;;5.40;61.10;;;;;;4973766;28;20639;-58
2021/11/23 08:20:19;;;;;;;2.80;2.58;;;5.40;61.20;;;;;;4973139;28;20110;-59
2021/11/23 08:22:48;;;;;;;8.60;2.80;;;5.40;61.10;;;;;;4970927;28;20458;-59
2021/11/23 08:25:14;;;;;;;7.60;3.03;;;5.40;61.10;;;;;;4976675;28;20035;-57
2021/11/23 08:27:40;;;;;;;2.97;2.67;;;5.40;60.90;;;;;;4976295;28;20077;-58
2021/11/23 08:30:09;;;;;;;4.60;3.15;;;5.40;60.70;;;;;;4976501;28;20494;-59
2021/11/23 08:32:35;;;;;;;3.17;2.47;;;5.40;60.70;;;;;;4975691;28;20493;-58
2021/11/23 08:35:03;;;;;;;2.63;2.42;;;5.40;60.80;;;;;;4978850;28;20046;-57
2021/11/23 08:37:29;;;;;;;2.80;2.58;;;5.40;60.70;;;;;;4981531;28;20030;-57
2021/11/23 08:39:55;;;;;;;2.72;2.53;;;5.40;60.50;;;;;;4973838;28;20044;-58
2021/11/23 08:42:22;;;;;;;2.70;2.50;;;5.40;60.30;;;;;;4975829;28;20429;-57
2021/11/23 08:44:48;;;;;;;3.22;2.78;;;5.40;60.00;;;;;;4977052;28;20077;-58
2021/11/23 08:47:16;;;;;;;3.85;2.63;;;5.40;59.90;;;;;;4976545;28;20439;-58
2021/11/23 08:49:43;;;;;;;3.10;2.80;;;5.40;59.80;;;;;;4976899;28;20125;-58
2021/11/23 08:52:10;;;;;;;4.63;3.25;;;5.40;59.80;;;;;;4976913;28;20030;-57
2021/11/23 08:54:36;;;;;;;4.10;3.38;;;5.40;59.80;;;;;;4970562;28;20120;-57
2021/11/23 08:57:04;;;;;;;3.45;3.03;;;5.40;59.80;;;;;;4977249;28;20109;-57
2021/11/23 08:59:34;;;;;;;5.07;3.83;;;5.40;59.70;;;;;;4976954;28;20038;-58
2021/11/23 09:02:03;;;;;;;6.22;3.13;;;5.40;59.90;;;;;;4970164;28;20075;-58
2021/11/23 09:04:29;;;;;;;3.90;3.40;;;5.40;59.80;;;;;;4971316;28;20035;-58
2021/11/23 09:06:56;;;;;;;5.00;3.47;;;5.50;60.00;;;;;;4970060;28;20043;-57
2021/11/23 09:09:26;;;;;;;6.13;3.20;;;5.50;60.00;;;;;;4974186;28;20030;-58
2021/11/23 09:11:54;;;;;;;3.38;3.08;;;5.50;59.90;;;;;;4973309;28;20042;-58
2021/11/23 09:14:19;;;;;;;3.65;2.97;;;5.50;59.90;;;;;;4973970;28;20034;-58
2021/11/23 09:16:45;;;;;;;3.13;2.85;;;5.50;59.90;;;;;;4970844;28;20041;-58
2021/11/23 09:19:11;;;;;;;4.50;3.20;;;5.50;59.90;;;;;;4973330;28;20073;-57
2021/11/23 09:21:37;;;;;;;3.30;3.00;;;5.50;60.00;;;;;;4973545;28;20101;-59
2021/11/23 09:24:03;;;;;;;3.55;3.08;;;5.60;60.00;;;;;;4976825;28;20034;-57
2021/11/23 09:26:29;;;;;;;3.88;3.03;;;5.60;59.90;;;;;;4972354;28;20034;-57
2021/11/23 09:28:56;;;;;;;2.90;2.47;;;5.60;60.00;;;;;;4971524;28;20026;-56
2021/11/23 09:31:23;;;;;;;2.88;2.67;;;5.60;59.80;;;;;;4973764;28;20513;-58
2021/11/23 09:33:49;;;;;;;3.33;2.60;;;5.60;59.70;;;;;;4971220;28;20145;-58
2021/11/23 09:36:15;;;;;;;3.50;2.97;;;5.60;59.70;;;;;;4968733;28;20038;-58
2021/11/23 09:38:42;;;;;;;3.20;2.90;;;5.60;59.70;;;;;;4965782;28;20035;-57
2021/11/23 09:41:09;;;;;;;3.80;3.00;;;5.60;59.60;;;;;;4970625;28;20070;-57
2021/11/23 09:43:36;;;;;;;3.47;3.03;;;5.60;59.70;;;;;;4969855;28;20671;-57
2021/11/23 09:46:02;;;;;;;3.72;3.08;;;5.60;59.70;;;;;;4973359;28;20026;-58
2021/11/23 09:48:30;;;;;;;4.15;2.95;;;5.60;59.60;;;;;;4971775;28;20026;-58
2021/11/23 09:50:56;;;;;;;3.10;2.80;;;5.70;59.40;;;;;;4972719;28;20180;-58
2021/11/23 09:53:22;;;;;;;3.50;2.70;;;5.60;59.10;;;;;;4976407;28;20127;-59
2021/11/23 09:55:50;;;;;;;2.70;2.50;;;5.60;59.00;;;;;;4977988;28;20034;-58
2021/11/23 09:58:16;;;;;;;3.42;2.80;;;5.60;58.80;;;;;;4975119;28;20124;-59
2021/11/23 10:00:45;;;;;;;3.67;2.75;;;5.60;58.70;;;;;;4972253;28;20034;-58
2021/11/23 10:03:40;;;;;;;2.65;2.45;;;5.60;58.60;;;;;;4977201;28;21691;-58
2021/11/23 10:06:19;;;;;;;3.17;2.60;;;5.60;58.40;;;;;;4962344;28;20049;-57
2021/11/23 10:08:46;;;;;;;2.70;2.50;;;5.60;58.70;;;;;;4975798;28;20041;-58
2021/11/23 10:11:28;;;;;;;2.53;2.33;;;5.60;58.60;;;;;;4975960;28;20030;-57
2021/11/23 10:13:56;;;;;;;2.30;2.20;;;5.60;58.50;;;;;;4969717;28;20042;-59
2021/11/23 10:16:23;;;;;;;2.95;2.60;;;5.60;58.40;;;;;;4971806;28;20045;-59
2021/11/23 10:18:50;;;;;;;2.80;2.60;;;5.60;58.40;;;;;;4976566;28;20073;-58
2021/11/23 10:21:18;;;;;;;2.88;2.67;;;5.60;58.40;;;;;;4972379;28;20026;-58
2021/11/23 10:23:52;;;;;;;2.83;2.63;;;5.60;58.20;;;;;;4974072;28;20040;-59
2021/11/23 10:26:26;;;;;;;3.05;2.78;;;5.60;58.10;;;;;;4971207;28;20156;-59
2021/11/23 10:29:01;;;;;;;2.90;2.60;;;5.60;58.10;;;;;;4972914;28;20895;-58
2021/11/23 10:31:40;;;;;;;2.78;2.58;;;5.60;58.10;;;;;;4969495;28;20030;-58
2021/11/23 10:34:14;;;;;;;2.90;2.60;;;5.70;58.20;;;;;;4973456;28;20057;-59
2021/11/23 10:36:43;;;;;;;2.65;2.45;;;5.60;58.90;;;;;;4970097;28;20034;-59
2021/11/23 10:39:17;;;;;;;3.17;2.88;;;5.70;58.50;;;;;;4972976;28;20161;-60
2021/11/23 10:41:49;;;;;;;3.30;3.00;;;5.70;58.70;;;;;;4969009;28;20046;-57
2021/11/23 10:44:23;;;;;;;3.10;2.80;;;5.70;58.70;;;;;;4971453;28;20041;-59
2021/11/23 10:46:57;;;;;;;3.38;2.80;;;5.70;58.50;;;;;;4974675;28;20027;-59
2021/11/23 10:49:30;;;;;;;3.42;2.63;;;5.70;58.50;;;;;;4973586;28;20076;-58
2021/11/23 10:51:58;;;;;;;2.78;2.58;;;5.70;58.50;;;;;;4974500;28;20812;-58
2021/11/23 10:54:24;;;;;;;3.25;3.00;;;5.80;58.50;;;;;;4974059;28;20547;-59
2021/11/23 10:56:54;;;;;;;2.80;2.60;;;5.80;58.60;;;;;;4976211;28;20034;-59
2021/11/23 10:59:20;;;;;;;3.58;3.08;;;5.80;58.30;;;;;;4976736;28;20049;-59
2021/11/23 11:01:46;;;;;;;2.60;2.40;;;5.80;58.30;;;;;;4970747;28;20478;-60
2021/11/23 11:04:14;;;;;;;3.40;2.65;;;5.80;58.20;;;;;;4972679;28;20035;-60
2021/11/23 11:06:40;;;;;;;4.45;2.90;;;5.70;58.20;;;;;;4974740;28;20038;-59
2021/11/23 11:09:07;;;;;;;3.42;3.13;;;5.70;58.30;;;;;;4975966;28;20370;-59
2021/11/23 11:11:33;;;;;;;2.63;2.42;;;5.70;58.20;;;;;;4977647;28;20084;-59
2021/11/23 11:14:00;;;;;;;3.60;2.58;;;5.70;58.10;;;;;;4980782;28;20038;-60
2021/11/23 11:16:25;;;;;;;3.45;2.80;;;5.80;58.10;;;;;;4972932;28;20034;-59
2021/11/23 11:19:06;;;;;;;3.05;2.75;;;5.80;58.10;;;;;;4977028;28;20038;-59
2021/11/23 11:21:35;;;;;;;3.50;2.70;;;5.80;58.00;;;;;;4977209;28;20429;-59
2021/11/23 11:24:49;;;;;;;2.95;2.65;;;5.80;58.10;;;;;;4979852;28;20034;-59
2021/11/23 11:27:42;;;;;;;3.20;2.90;;;5.80;58.10;;;;;;4983702;28;20038;-59
2021/11/23 11:30:22;;;;;;;3.45;2.90;;;5.80;58.10;;;;;;4978670;28;20157;-59
2021/11/23 11:32:52;;;;;;;2.85;2.60;;;5.80;58.10;;;;;;4977570;28;20116;-59
2021/11/23 11:35:23;;;;;;;3.85;3.30;;;5.80;58.90;;;;;;4976138;28;20014;-60
2021/11/23 11:37:50;;;;;;;3.25;2.80;;;5.80;58.20;;;;;;4974426;28;20026;-60
2021/11/23 11:40:25;;;;;;;2.95;2.70;;;5.70;58.00;;;;;;4973469;28;20046;-60
2021/11/23 11:42:54;;;;;;;3.20;2.90;;;5.80;58.10;;;;;;4977336;28;20018;-60
2021/11/23 11:45:22;;;;;;;2.97;2.78;;;5.80;58.40;;;;;;4975322;28;20030;-60
2021/11/23 11:47:49;;;;;;;3.20;2.90;;;5.80;58.30;;;;;;4976922;28;20034;-59
2021/11/23 11:50:25;;;;;;;2.80;2.60;;;5.80;58.10;;;;;;4974695;28;20812;-59
2021/11/23 11:52:59;;;;;;;3.38;2.80;;;5.80;58.20;;;;;;4974013;28;20038;-60
2021/11/23 11:55:27;;;;;;;2.75;2.55;;;5.80;58.20;;;;;;4974317;28;20027;-57
2021/11/23 11:57:56;;;;;;;3.20;2.72;;;5.80;58.10;;;;;;4966277;28;20105;-59
2021/11/23 12:00:27;;;;;;;2.83;2.53;;;5.80;58.10;;;;;;4971224;28;21288;-60
2021/11/23 12:03:00;;;;;;;3.03;2.72;;;5.90;58.10;;;;;;4976371;28;20149;-60
2021/11/23 12:05:25;;;;;;;3.00;2.70;;;5.80;58.10;;;;;;4974345;28;20488;-60
2021/11/23 12:07:52;;;;;;;2.95;2.65;;;5.90;58.00;;;;;;4969680;28;20039;-60
2021/11/23 12:10:24;;;;;;;4.00;2.72;;;5.90;57.80;;;;;;4967990;28;20038;-59
2021/11/23 12:12:50;;;;;;;3.50;2.80;;;5.90;57.80;;;;;;4972872;28;20049;-59
2021/11/23 12:15:41;;;;;;;3.20;3.00;;;5.90;57.90;;;;;;4962113;28;20790;-59
2021/11/23 12:18:19;;;;;;;3.40;3.10;;;5.90;57.90;;;;;;4962824;28;20046;-60
2021/11/23 12:21:09;;;;;;;4.18;2.60;;;5.90;58.00;;;;;;4973783;28;20521;-59
2021/11/23 12:23:40;;;;;;;3.08;2.88;;;6.00;58.20;;;;;;4967753;28;20572;-59
2021/11/23 12:26:12;;;;;;;3.10;2.85;;;6.00;58.00;;;;;;4971613;28;20030;-59
2021/11/23 12:28:39;;;;;;;3.80;3.20;;;6.10;58.00;;;;;;4971823;28;20483;-59
2021/11/23 12:31:11;;;;;;;3.33;2.88;;;6.10;58.00;;;;;;4976677;28;20058;-60
2021/11/23 12:33:49;;;;;;;3.17;2.80;;;6.10;57.80;;;;;;4977469;28;20061;-59
2021/11/23 12:36:22;;;;;;;3.13;2.50;;;6.20;57.80;;;;;;4976942;28;20058;-60
2021/11/23 12:38:48;;;;;;;3.90;3.00;;;6.20;57.60;;;;;;4973232;28;20042;-59
2021/11/23 12:41:22;;;;;;;3.83;2.72;;;6.20;57.50;;;;;;4978800;28;20126;-59
2021/11/23 12:43:49;;;;;;;2.70;2.50;;;6.20;57.40;;;;;;4971005;28;20041;-59
2021/11/23 12:46:21;;;;;;;3.05;2.75;;;6.30;58.00;;;;;;4976447;28;20402;-60
2021/11/23 12:48:50;;;;;;;3.10;2.80;;;6.30;57.40;;;;;;4972084;28;20136;-60
2021/11/23 12:51:27;;;;;;;3.75;3.08;;;6.30;57.40;;;;;;4975313;28;20463;-59
2021/11/23 12:54:00;;;;;;;3.35;3.05;;;6.30;57.40;;;;;;4973367;28;20026;-60
2021/11/23 12:56:45;;;;;;;3.85;3.10;;;6.30;57.40;;;;;;4976140;28;20042;-60
2021/11/23 12:59:31;;;;;;;3.00;2.70;;;6.30;57.10;;;;;;4966977;28;20077;-59